createdAt,value
2022-12-11T00:02:00.647Z,21.77
2022-12-11T00:04:27.822Z,21.86
2022-12-11T00:06:54.936Z,21.86
2022-12-11T00:09:22.148Z,21.84
2022-12-11T00:11:50.641Z,21.91
2022-12-11T00:14:17.793Z,21.96
2022-12-11T00:16:45.178Z,21.88
2022-12-11T00:19:12.299Z,21.87
2022-12-11T00:21:39.411Z,21.88
2022-12-11T00:24:07.122Z,21.90
2022-12-11T00:26:34.239Z,21.92
2022-12-11T00:29:02.833Z,21.91
2022-12-11T00:31:29.991Z,21.91
2022-12-11T00:33:57.129Z,21.92
2022-12-11T00:36:26.334Z,21.92
2022-12-11T00:38:54.009Z,21.86
2022-12-11T00:41:21.884Z,21.88
2022-12-11T00:43:49.052Z,21.89
2022-12-11T00:46:17.627Z,21.85
2022-12-11T00:48:44.979Z,21.82
2022-12-11T00:51:12.295Z,21.81
2022-12-11T00:53:39.594Z,21.78
2022-12-11T00:56:11.704Z,21.79
2022-12-11T00:58:39.056Z,21.79
2022-12-11T01:01:08.422Z,21.73
2022-12-11T01:03:37.184Z,21.78
2022-12-11T01:06:05.279Z,21.79
2022-12-11T01:08:38.110Z,21.80
2022-12-11T01:11:08.419Z,21.83
2022-12-11T01:13:35.679Z,21.82
2022-12-11T01:16:07.363Z,21.86
2022-12-11T01:18:34.854Z,21.88
2022-12-11T01:21:07.216Z,21.83
2022-12-11T01:23:34.459Z,21.80
2022-12-11T01:26:06.152Z,21.78
2022-12-11T01:28:33.323Z,21.71
2022-12-11T01:31:00.566Z,21.76
2022-12-11T01:33:28.166Z,21.75
2022-12-11T01:35:55.265Z,21.72
2022-12-11T01:38:23.702Z,21.68
2022-12-11T01:40:51.402Z,21.70
2022-12-11T01:43:18.895Z,21.70
2022-12-11T01:45:47.758Z,21.69
2022-12-11T01:48:19.676Z,21.67
2022-12-11T01:50:50.606Z,21.64
2022-12-11T01:53:22.741Z,21.61
2022-12-11T01:55:54.889Z,21.65
2022-12-11T01:58:26.287Z,21.67
2022-12-11T02:00:54.545Z,21.71
2022-12-11T02:03:22.257Z,21.69
2022-12-11T02:05:50.042Z,21.72
2022-12-11T02:08:17.426Z,21.77
2022-12-11T02:10:56.240Z,21.74
2022-12-11T02:13:29.876Z,21.69
2022-12-11T02:16:05.086Z,21.69
2022-12-11T02:18:38.847Z,21.66
2022-12-11T02:21:13.110Z,21.67
2022-12-11T02:23:53.590Z,21.63
2022-12-11T02:26:41.879Z,21.68
2022-12-11T02:29:18.909Z,21.65
2022-12-11T02:31:52.046Z,21.62
2022-12-11T02:34:27.196Z,21.59
2022-12-11T02:37:00.475Z,21.61
2022-12-11T02:39:29.264Z,21.52
2022-12-11T02:41:56.816Z,21.56
2022-12-11T02:44:30.277Z,21.50
2022-12-11T02:46:59.154Z,21.56
2022-12-11T02:49:28.043Z,21.57
2022-12-11T02:51:57.930Z,21.61
2022-12-11T02:54:28.467Z,21.66
2022-12-11T02:57:02.571Z,21.63
2022-12-11T02:59:35.780Z,21.69
2022-12-11T03:02:04.072Z,21.69
2022-12-11T03:04:33.452Z,21.67
2022-12-11T03:07:04.651Z,21.63
2022-12-11T03:09:32.013Z,21.65
2022-12-11T03:11:59.124Z,21.63
2022-12-11T03:14:26.292Z,21.58
2022-12-11T03:17:00.933Z,21.52
2022-12-11T03:19:34.462Z,21.58
2022-12-11T03:22:10.340Z,21.55
2022-12-11T03:24:41.471Z,21.52
2022-12-11T03:27:15.414Z,21.51
2022-12-11T03:29:48.693Z,21.48
2022-12-11T03:32:21.903Z,21.48
2022-12-11T03:34:58.225Z,21.45
2022-12-11T03:37:31.410Z,21.42
2022-12-11T03:40:02.412Z,21.42
2022-12-11T03:42:31.526Z,21.42
2022-12-11T03:44:59.893Z,21.46
2022-12-11T03:47:29.955Z,21.45
2022-12-11T03:49:59.775Z,21.52
2022-12-11T03:52:28.323Z,21.56
2022-12-11T03:55:00.406Z,21.58
2022-12-11T03:57:32.285Z,21.61
2022-12-11T03:59:59.571Z,21.81
2022-12-11T04:02:28.038Z,21.97
2022-12-11T04:04:55.131Z,22.03
2022-12-11T04:07:22.710Z,22.05
2022-12-11T04:09:49.834Z,22.17
2022-12-11T04:12:17.000Z,22.15
2022-12-11T04:14:44.235Z,22.17
2022-12-11T04:17:11.748Z,22.17
2022-12-11T04:19:40.204Z,22.09
2022-12-11T04:22:07.460Z,22.17
2022-12-11T04:24:34.691Z,22.20
2022-12-11T04:27:01.839Z,22.14
2022-12-11T04:29:28.964Z,22.03
2022-12-11T04:31:56.091Z,21.89
2022-12-11T04:34:23.358Z,21.85
2022-12-11T04:36:51.838Z,21.79
2022-12-11T04:39:18.967Z,21.78
2022-12-11T04:41:46.076Z,21.82
2022-12-11T04:44:13.231Z,21.85
2022-12-11T04:46:40.447Z,21.87
2022-12-11T04:49:07.600Z,21.87
2022-12-11T04:51:34.704Z,21.81
2022-12-11T04:54:03.254Z,21.83
2022-12-11T04:56:30.427Z,21.83
2022-12-11T04:58:57.536Z,21.84
2022-12-11T05:01:24.695Z,21.82
2022-12-11T05:03:51.861Z,21.88
2022-12-11T05:06:19.145Z,21.88
2022-12-11T05:08:46.260Z,21.93
2022-12-11T05:11:15.682Z,21.94
2022-12-11T05:13:43.435Z,21.89
2022-12-11T05:16:13.257Z,21.83
2022-12-11T05:18:40.689Z,21.76
2022-12-11T05:21:10.946Z,21.77
2022-12-11T05:23:38.856Z,21.63
2022-12-11T05:26:08.673Z,21.63
2022-12-11T05:28:38.883Z,21.62
2022-12-11T05:31:07.865Z,21.68
2022-12-11T05:33:35.577Z,21.62
2022-12-11T05:36:03.316Z,21.66
2022-12-11T05:38:30.636Z,21.68
2022-12-11T05:40:58.563Z,21.71
2022-12-11T05:43:27.205Z,21.71
2022-12-11T05:45:56.874Z,21.69
2022-12-11T05:48:23.986Z,21.68
2022-12-11T05:50:57.895Z,21.65
2022-12-11T05:53:25.163Z,21.60
2022-12-11T05:55:52.530Z,21.64
2022-12-11T05:58:20.722Z,21.57
2022-12-11T06:00:48.199Z,21.63
2022-12-11T06:03:16.810Z,21.62
2022-12-11T06:05:44.012Z,21.62
2022-12-11T06:08:11.150Z,21.56
2022-12-11T06:10:38.323Z,21.55
2022-12-11T06:13:05.489Z,21.52
2022-12-11T06:15:32.859Z,21.52
2022-12-11T06:17:59.981Z,21.52
2022-12-11T06:20:31.014Z,21.59
2022-12-11T06:22:58.116Z,21.66
2022-12-11T06:25:25.264Z,21.81
2022-12-11T06:27:52.482Z,21.88
2022-12-11T06:30:19.786Z,22.17
2022-12-11T06:32:46.909Z,21.89
2022-12-11T06:35:14.115Z,21.74
2022-12-11T06:37:42.603Z,21.74
2022-12-11T06:40:10.955Z,22.56
2022-12-11T06:42:38.308Z,22.92
2022-12-11T06:45:06.635Z,22.88
2022-12-11T06:47:33.743Z,22.91
2022-12-11T06:50:00.903Z,22.85
2022-12-11T06:52:28.682Z,22.81
2022-12-11T06:54:57.324Z,22.81
2022-12-11T06:57:24.547Z,22.79
2022-12-11T06:59:51.645Z,22.99
2022-12-11T07:02:19.917Z,23.08
2022-12-11T07:04:51.842Z,23.12
2022-12-11T07:07:21.978Z,23.13
2022-12-11T07:09:49.151Z,23.09
2022-12-11T07:12:18.131Z,23.11
2022-12-11T07:14:45.239Z,23.09
2022-12-11T07:17:12.620Z,23.04
2022-12-11T07:19:39.725Z,22.92
2022-12-11T07:22:07.161Z,22.75
2022-12-11T07:24:34.525Z,22.81
2022-12-11T07:27:01.705Z,22.85
2022-12-11T07:29:30.216Z,22.74
2022-12-11T07:31:57.493Z,22.68
2022-12-11T07:34:24.650Z,22.71
2022-12-11T07:36:51.785Z,22.64
2022-12-11T07:39:18.975Z,22.77
2022-12-11T07:41:46.087Z,22.64
2022-12-11T07:44:13.218Z,22.62
2022-12-11T07:46:41.742Z,22.66
2022-12-11T07:49:08.855Z,22.57
2022-12-11T07:51:37.739Z,22.59
2022-12-11T07:54:07.734Z,22.46
2022-12-11T07:56:34.959Z,22.48
2022-12-11T07:59:03.260Z,22.35
2022-12-11T08:01:32.701Z,22.37
2022-12-11T08:04:01.201Z,22.97
2022-12-11T08:06:30.622Z,22.73
2022-12-11T08:08:59.213Z,22.67
2022-12-11T08:11:26.902Z,22.60
2022-12-11T08:13:54.969Z,22.58
2022-12-11T08:16:22.821Z,22.71
2022-12-11T08:18:50.046Z,22.84
2022-12-11T08:21:21.001Z,23.00
2022-12-11T08:23:49.102Z,23.16
2022-12-11T08:26:19.417Z,23.24
2022-12-11T08:28:46.548Z,23.48
2022-12-11T08:31:15.701Z,23.23
2022-12-11T08:33:43.245Z,23.24
2022-12-11T08:36:12.754Z,23.33
2022-12-11T08:38:41.928Z,23.36
2022-12-11T08:41:10.187Z,23.07
2022-12-11T08:43:37.794Z,23.00
2022-12-11T08:46:05.534Z,22.93
2022-12-11T08:48:32.891Z,23.01
2022-12-11T08:51:00.749Z,23.19
2022-12-11T08:53:28.396Z,23.53
2022-12-11T08:56:01.188Z,23.56
2022-12-11T08:58:28.377Z,23.76
2022-12-11T09:00:55.579Z,23.85
2022-12-11T09:03:22.942Z,23.90
2022-12-11T09:05:50.173Z,23.92
2022-12-11T09:08:17.442Z,24.00
2022-12-11T09:10:44.636Z,24.03
2022-12-11T09:13:13.142Z,24.14
2022-12-11T09:15:41.086Z,24.05
2022-12-11T09:18:08.453Z,24.21
2022-12-11T09:20:35.574Z,24.23
2022-12-11T09:23:02.686Z,24.16
2022-12-11T09:25:29.890Z,24.15
2022-12-11T09:27:57.037Z,23.52
2022-12-11T09:30:25.496Z,23.21
2022-12-11T09:32:52.608Z,23.08
2022-12-11T09:35:19.922Z,22.94
2022-12-11T09:37:47.113Z,22.67
2022-12-11T09:40:14.484Z,22.39
2022-12-11T09:42:50.896Z,22.64
2022-12-11T09:45:18.307Z,23.02
2022-12-11T09:47:50.229Z,23.28
2022-12-11T09:50:22.871Z,23.37
2022-12-11T09:52:59.841Z,23.44
2022-12-11T09:55:39.039Z,23.46
2022-12-11T09:58:16.690Z,23.43
2022-12-11T10:00:47.623Z,23.32
2022-12-11T10:03:49.634Z,23.34
2022-12-11T10:06:24.007Z,23.42
2022-12-11T10:09:03.316Z,23.24
2022-12-11T10:11:49.200Z,23.65
2022-12-11T10:14:28.917Z,24.14
2022-12-11T10:17:02.313Z,24.10
2022-12-11T10:19:32.768Z,23.95
2022-12-11T10:22:00.863Z,23.74
2022-12-11T10:25:09.537Z,23.55
2022-12-11T10:27:28.185Z,23.48
2022-12-11T10:30:05.452Z,23.36
2022-12-11T10:32:40.994Z,23.32
2022-12-11T10:35:19.865Z,23.29
2022-12-11T10:37:46.999Z,23.26
2022-12-11T10:40:14.499Z,23.21
2022-12-11T10:42:52.407Z,23.21
2022-12-11T10:45:19.649Z,23.15
2022-12-11T10:47:46.775Z,23.09
2022-12-11T10:50:24.370Z,23.00
2022-12-11T10:52:52.267Z,22.96
2022-12-11T10:55:22.238Z,22.85
2022-12-11T10:57:56.019Z,22.97
2022-12-11T11:00:30.772Z,22.88
2022-12-11T11:02:58.636Z,22.89
2022-12-11T11:05:33.088Z,22.78
2022-12-11T11:08:11.227Z,22.84
2022-12-11T11:10:38.454Z,22.98
2022-12-11T11:13:05.557Z,22.98
2022-12-11T11:15:33.114Z,22.99
2022-12-11T11:18:11.283Z,22.97
2022-12-11T11:20:46.293Z,22.92
2022-12-11T11:23:16.265Z,22.96
2022-12-11T11:25:50.961Z,23.01
2022-12-11T11:28:21.388Z,22.94
2022-12-11T11:30:59.434Z,22.93
2022-12-11T11:33:27.417Z,22.92
2022-12-11T11:35:57.517Z,22.93
2022-12-11T11:38:28.846Z,22.92
2022-12-11T11:41:07.699Z,22.97
2022-12-11T11:43:43.343Z,22.94
2022-12-11T11:46:14.833Z,22.93
2022-12-11T11:48:50.928Z,22.90
2022-12-11T11:51:24.902Z,22.87
2022-12-11T11:53:55.629Z,22.87
2022-12-11T11:56:26.538Z,22.83
2022-12-11T11:59:11.803Z,22.80
2022-12-11T12:01:41.571Z,22.72
2022-12-11T12:04:09.622Z,22.72
2022-12-11T12:06:53.989Z,22.70
2022-12-11T12:09:34.182Z,22.66
2022-12-11T12:12:12.300Z,22.70
2022-12-11T12:14:58.299Z,22.70
2022-12-11T12:17:32.574Z,22.71
2022-12-11T12:20:09.304Z,22.69
2022-12-11T12:22:52.937Z,22.66
2022-12-11T12:25:26.803Z,22.66
2022-12-11T12:27:59.473Z,22.66
2022-12-11T12:30:30.340Z,22.65
2022-12-11T12:33:15.305Z,22.64
2022-12-11T12:35:55.707Z,22.65
2022-12-11T12:38:35.375Z,22.59
2022-12-11T12:41:09.824Z,22.66
2022-12-11T12:43:53.175Z,22.60
2022-12-11T12:46:28.941Z,22.59
2022-12-11T12:48:58.840Z,22.59
2022-12-11T12:51:26.796Z,22.51
2022-12-11T12:53:59.175Z,22.53
2022-12-11T12:56:29.132Z,22.53
2022-12-11T12:58:56.307Z,22.53
2022-12-11T13:01:25.854Z,22.40
2022-12-11T13:03:56.205Z,22.45
2022-12-11T13:06:32.619Z,22.55
2022-12-11T13:09:12.312Z,22.59
2022-12-11T13:11:39.586Z,22.56
2022-12-11T13:14:21.685Z,22.52
2022-12-11T13:16:50.745Z,22.47
2022-12-11T13:19:26.846Z,22.50
2022-12-11T13:21:58.720Z,22.50
2022-12-11T13:24:29.232Z,22.47
2022-12-11T13:26:56.428Z,22.45
2022-12-11T13:29:32.752Z,22.44
2022-12-11T13:32:02.008Z,22.44
2022-12-11T13:34:33.370Z,22.44
2022-12-11T13:37:02.343Z,22.42
2022-12-11T13:39:32.947Z,22.40
2022-12-11T13:42:02.702Z,22.36
2022-12-11T13:44:33.463Z,22.30
2022-12-11T13:47:03.353Z,22.33
2022-12-11T13:49:35.125Z,22.40
2022-12-11T13:52:03.108Z,22.40
2022-12-11T13:54:34.413Z,22.35
2022-12-11T13:57:14.895Z,22.36
2022-12-11T13:59:43.615Z,22.39
2022-12-11T14:02:18.003Z,22.53
2022-12-11T14:04:47.774Z,22.53
2022-12-11T14:07:23.627Z,22.44
2022-12-11T14:10:01.962Z,22.58
2022-12-11T14:12:30.622Z,22.60
2022-12-11T14:15:00.863Z,22.65
2022-12-11T14:17:30.225Z,22.64
2022-12-11T14:20:00.315Z,22.66
2022-12-11T14:22:29.687Z,22.66
2022-12-11T14:24:59.964Z,22.69
2022-12-11T14:27:27.743Z,22.69
2022-12-11T14:29:55.638Z,22.69
2022-12-11T14:32:31.367Z,22.72
2022-12-11T14:35:00.304Z,22.65
2022-12-11T14:37:29.058Z,22.53
2022-12-11T14:40:02.437Z,22.51
2022-12-11T14:42:33.791Z,22.51
2022-12-11T14:45:06.364Z,22.31
2022-12-11T14:47:38.872Z,22.57
2022-12-11T14:50:11.606Z,22.64
2022-12-11T14:52:42.162Z,22.58
2022-12-11T14:55:16.573Z,22.61
2022-12-11T14:57:47.785Z,22.66
2022-12-11T15:00:26.894Z,22.66
2022-12-11T15:02:58.602Z,22.69
2022-12-11T15:05:26.011Z,22.71
2022-12-11T15:07:56.548Z,22.64
2022-12-11T15:10:32.359Z,22.66
2022-12-11T15:12:59.635Z,22.62
2022-12-11T15:15:29.571Z,22.64
2022-12-11T15:17:57.099Z,22.63
2022-12-11T15:20:27.146Z,22.61
2022-12-11T15:22:57.761Z,22.68
2022-12-11T15:25:28.162Z,22.66
2022-12-11T15:27:57.250Z,22.61
2022-12-11T15:30:27.135Z,22.62
2022-12-11T15:33:03.105Z,22.56
2022-12-11T15:35:30.517Z,22.56
2022-12-11T15:37:58.881Z,22.68
2022-12-11T15:40:28.036Z,22.78
2022-12-11T15:42:56.094Z,22.80
2022-12-11T15:45:25.792Z,22.77
2022-12-11T15:47:53.101Z,22.73
2022-12-11T15:50:22.485Z,22.72
2022-12-11T15:52:50.962Z,22.79
2022-12-11T15:55:19.644Z,22.80
2022-12-11T15:57:52.101Z,22.78
2022-12-11T16:00:20.939Z,22.81
2022-12-11T16:02:48.252Z,22.80
2022-12-11T16:05:16.030Z,22.74
2022-12-11T16:07:43.172Z,22.83
2022-12-11T16:10:14.548Z,22.83
2022-12-11T16:12:41.725Z,22.81
2022-12-11T16:15:11.110Z,22.84
2022-12-11T16:17:38.792Z,22.74
2022-12-11T16:20:07.684Z,22.71
2022-12-11T16:22:34.895Z,22.74
2022-12-11T16:25:02.058Z,22.66
2022-12-11T16:27:29.198Z,22.70
2022-12-11T16:29:56.324Z,22.73
2022-12-11T16:32:24.863Z,22.81
2022-12-11T16:34:51.975Z,22.81
2022-12-11T16:37:19.150Z,22.83
2022-12-11T16:39:46.255Z,22.90
2022-12-11T16:42:13.408Z,22.87
2022-12-11T16:44:43.975Z,22.94
2022-12-11T16:47:11.556Z,22.96
2022-12-11T16:49:40.153Z,22.86
2022-12-11T16:52:07.420Z,22.74
2022-12-11T16:54:34.935Z,22.60
2022-12-11T16:57:02.049Z,22.60
2022-12-11T16:59:35.138Z,22.46
2022-12-11T17:02:04.162Z,22.48
2022-12-11T17:04:31.287Z,22.55
2022-12-11T17:06:59.741Z,22.45
2022-12-11T17:09:26.861Z,22.38
2022-12-11T17:11:53.986Z,22.33
2022-12-11T17:14:21.084Z,22.28
2022-12-11T17:16:48.240Z,22.26
2022-12-11T17:19:15.684Z,22.24
2022-12-11T17:21:47.006Z,22.25
2022-12-11T17:24:18.287Z,22.22
2022-12-11T17:26:45.917Z,22.25
2022-12-11T17:29:13.401Z,22.26
2022-12-11T17:31:40.893Z,22.26
2022-12-11T17:34:08.153Z,22.25
2022-12-11T17:36:35.266Z,22.22
2022-12-11T17:39:02.410Z,22.21
2022-12-11T17:41:30.883Z,22.18
2022-12-11T17:43:58.012Z,22.18
2022-12-11T17:46:25.352Z,22.16
2022-12-11T17:48:52.479Z,22.09
2022-12-11T17:51:19.634Z,22.13
2022-12-11T17:53:47.085Z,22.11
2022-12-11T17:56:14.209Z,22.07
2022-12-11T17:58:42.683Z,22.05
2022-12-11T18:01:10.782Z,22.03
2022-12-11T18:03:38.260Z,22.01
2022-12-11T18:06:07.870Z,21.97
2022-12-11T18:08:35.058Z,21.99
2022-12-11T18:11:06.854Z,22.05
2022-12-11T18:13:34.585Z,21.99
2022-12-11T18:16:05.566Z,22.02
2022-12-11T18:18:32.749Z,21.95
2022-12-11T18:21:00.275Z,21.99
2022-12-11T18:23:27.791Z,22.04
2022-12-11T18:25:54.912Z,22.03
2022-12-11T18:28:22.179Z,22.03
2022-12-11T18:30:49.432Z,22.03
2022-12-11T18:33:17.911Z,22.03
2022-12-11T18:35:45.063Z,22.01
2022-12-11T18:38:12.169Z,21.98
2022-12-11T18:40:39.351Z,21.98
2022-12-11T18:43:06.465Z,21.97
2022-12-11T18:45:33.596Z,21.86
2022-12-11T18:48:00.713Z,21.94
2022-12-11T18:50:29.640Z,21.95
2022-12-11T18:52:56.752Z,21.86
2022-12-11T18:55:23.880Z,21.90
2022-12-11T18:57:51.085Z,21.88
2022-12-11T19:00:18.681Z,21.82
2022-12-11T19:02:45.875Z,21.82
2022-12-11T19:05:13.517Z,21.85
2022-12-11T19:07:42.209Z,21.93
2022-12-11T19:10:10.007Z,21.83
2022-12-11T19:12:37.139Z,21.93
2022-12-11T19:15:05.121Z,21.91
2022-12-11T19:17:32.290Z,21.87
2022-12-11T19:20:05.257Z,21.86
2022-12-11T19:22:36.655Z,21.89
2022-12-11T19:25:06.605Z,21.91
2022-12-11T19:27:33.739Z,21.93
2022-12-11T19:30:00.853Z,21.91
2022-12-11T19:32:30.813Z,21.89
2022-12-11T19:35:01.894Z,21.81
2022-12-11T19:37:29.040Z,21.82
2022-12-11T19:39:56.150Z,21.81
2022-12-11T19:42:26.163Z,21.79
2022-12-11T19:44:53.316Z,21.78
2022-12-11T19:47:20.455Z,21.77
2022-12-11T19:49:47.561Z,21.68
2022-12-11T19:52:14.923Z,21.79
2022-12-11T19:54:42.035Z,21.81
2022-12-11T19:57:09.136Z,21.72
2022-12-11T19:59:37.865Z,21.76
2022-12-11T20:02:05.063Z,21.75
2022-12-11T20:04:32.214Z,21.72
2022-12-11T20:06:59.397Z,21.78
2022-12-11T20:09:26.522Z,21.82
2022-12-11T20:11:53.696Z,21.81
2022-12-11T20:14:23.584Z,21.80
2022-12-11T20:19:39.804Z,21.76
2022-12-11T20:22:06.977Z,21.72
2022-12-11T20:24:34.093Z,21.73
2022-12-11T20:27:01.226Z,21.68
2022-12-11T20:29:28.367Z,21.75
2022-12-11T20:31:57.007Z,21.65
2022-12-11T20:34:24.139Z,21.70
2022-12-11T20:36:52.143Z,21.65
2022-12-11T20:39:19.303Z,21.62
2022-12-11T20:41:46.429Z,21.68
2022-12-11T20:44:13.676Z,21.66
2022-12-11T20:46:40.793Z,21.67
2022-12-11T20:49:09.457Z,21.57
2022-12-11T20:51:36.619Z,21.55
2022-12-11T20:54:04.033Z,21.55
2022-12-11T20:56:31.544Z,21.60
2022-12-11T20:58:59.988Z,21.59
2022-12-11T21:01:30.021Z,21.56
2022-12-11T21:03:57.455Z,21.58
2022-12-11T21:06:27.817Z,21.62
2022-12-11T21:08:54.929Z,21.63
2022-12-11T21:11:22.527Z,21.66
2022-12-11T21:13:49.871Z,21.59
2022-12-11T21:16:17.089Z,21.59
2022-12-11T21:18:44.294Z,21.55
2022-12-11T21:21:11.395Z,21.57
2022-12-11T21:23:39.924Z,21.54
2022-12-11T21:26:07.182Z,21.48
2022-12-11T21:28:35.763Z,21.56
2022-12-11T21:31:06.625Z,21.51
2022-12-11T21:33:33.855Z,21.46
2022-12-11T21:36:01.365Z,21.49
2022-12-11T21:38:28.820Z,21.46
2022-12-11T21:40:57.498Z,21.37
2022-12-11T21:43:24.614Z,21.43
2022-12-11T21:46:00.971Z,21.45
2022-12-11T21:48:29.148Z,21.45
2022-12-11T21:51:05.210Z,21.37
2022-12-11T21:53:32.533Z,21.47
2022-12-11T21:56:04.983Z,21.45
2022-12-11T21:58:32.086Z,21.43
2022-12-11T22:00:59.475Z,21.45
2022-12-11T22:03:26.637Z,21.46
2022-12-11T22:05:53.775Z,21.43
2022-12-11T22:08:21.235Z,21.43
2022-12-11T22:10:49.273Z,21.43
2022-12-11T22:13:17.755Z,21.41
2022-12-11T22:15:44.895Z,21.42
2022-12-11T22:18:12.012Z,21.45
2022-12-11T22:20:39.129Z,21.40
2022-12-11T22:23:06.250Z,21.41
2022-12-11T22:25:33.342Z,21.35
2022-12-11T22:28:00.470Z,21.35
2022-12-11T22:30:29.007Z,21.35
2022-12-11T22:32:56.156Z,21.35
2022-12-11T22:35:27.162Z,21.37
2022-12-11T22:37:54.770Z,21.34
2022-12-11T22:40:21.874Z,21.31
2022-12-11T22:42:49.215Z,21.41
2022-12-11T22:45:16.429Z,21.38
2022-12-11T22:47:44.964Z,21.34
2022-12-11T22:50:13.059Z,21.34
2022-12-11T22:52:40.520Z,21.35
2022-12-11T22:55:08.457Z,21.23
2022-12-11T22:57:35.957Z,21.35
2022-12-11T23:00:04.443Z,21.32
2022-12-11T23:02:31.631Z,21.33
2022-12-11T23:05:00.190Z,21.27
2022-12-11T23:07:27.478Z,21.25
2022-12-11T23:09:54.624Z,21.06
2022-12-11T23:12:21.893Z,21.17
2022-12-11T23:14:49.326Z,21.27
2022-12-11T23:17:16.587Z,21.20
2022-12-11T23:19:43.873Z,21.24
2022-12-11T23:22:12.431Z,21.26
2022-12-11T23:24:39.912Z,21.23
2022-12-11T23:27:07.370Z,21.22
2022-12-11T23:29:34.518Z,21.26
2022-12-11T23:32:02.516Z,21.18
2022-12-11T23:34:29.705Z,21.27
2022-12-11T23:36:56.844Z,21.24
2022-12-11T23:39:25.366Z,21.27
2022-12-11T23:41:52.468Z,21.23
2022-12-11T23:44:19.626Z,21.21
2022-12-11T23:46:46.801Z,21.19
2022-12-11T23:49:13.927Z,21.19
2022-12-11T23:51:41.048Z,21.18
2022-12-11T23:54:08.171Z,21.18
2022-12-11T23:56:36.650Z,21.17
2022-12-11T23:59:03.791Z,21.10
